sensor_id;sensor_type;location;lat;lon;timestamp;pressure;altitude;pressure_sealevel;temperature;humidity
75045;BME280;63614;56.026;35.960;2024-02-28T00:00:29;100142.34;;;-3.66;71.30
75045;BME280;63614;56.026;35.960;2024-02-28T00:02:55;100146.22;;;-3.59;71.67
75045;BME280;63614;56.026;35.960;2024-02-28T00:05:21;100151.63;;;-3.65;71.30
75045;BME280;63614;56.026;35.960;2024-02-28T00:07:47;100144.00;;;-3.65;71.80
75045;BME280;63614;56.026;35.960;2024-02-28T00:10:14;100138.56;;;-3.75;71.72
75045;BME280;63614;56.026;35.960;2024-02-28T00:12:40;100131.06;;;-3.60;71.84
75045;BME280;63614;56.026;35.960;2024-02-28T00:15:06;100142.09;;;-3.61;71.63
75045;BME280;63614;56.026;35.960;2024-02-28T00:17:40;100139.66;;;-3.63;71.76
75045;BME280;63614;56.026;35.960;2024-02-28T00:20:08;100135.56;;;-3.83;71.86
75045;BME280;63614;56.026;35.960;2024-02-28T00:22:35;100138.56;;;-3.75;72.03
75045;BME280;63614;56.026;35.960;2024-02-28T00:25:01;100136.16;;;-3.78;72.43
75045;BME280;63614;56.026;35.960;2024-02-28T00:27:29;100131.09;;;-3.78;71.79
75045;BME280;63614;56.026;35.960;2024-02-28T00:29:55;100119.75;;;-3.72;71.87
75045;BME280;63614;56.026;35.960;2024-02-28T00:32:21;100118.06;;;-3.72;71.68
75045;BME280;63614;56.026;35.960;2024-02-28T00:34:47;100114.19;;;-3.79;72.27
75045;BME280;63614;56.026;35.960;2024-02-28T00:37:13;100101.31;;;-3.76;72.14
75045;BME280;63614;56.026;35.960;2024-02-28T00:39:39;100087.41;;;-3.86;72.44
75045;BME280;63614;56.026;35.960;2024-02-28T00:42:05;100094.00;;;-3.82;72.32
75045;BME280;63614;56.026;35.960;2024-02-28T00:44:30;100105.88;;;-3.83;72.18
75045;BME280;63614;56.026;35.960;2024-02-28T00:46:57;100105.88;;;-3.83;72.43
75045;BME280;63614;56.026;35.960;2024-02-28T00:49:22;100103.06;;;-3.94;72.74
75045;BME280;63614;56.026;35.960;2024-02-28T00:51:48;100105.19;;;-3.86;72.72
75045;BME280;63614;56.026;35.960;2024-02-28T00:54:14;100106.28;;;-3.90;72.22
75045;BME280;63614;56.026;35.960;2024-02-28T00:56:40;100095.50;;;-3.78;72.69
75045;BME280;63614;56.026;35.960;2024-02-28T00:59:05;100096.47;;;-3.80;72.64
75045;BME280;63614;56.026;35.960;2024-02-28T01:01:32;100083.69;;;-3.79;72.46
75045;BME280;63614;56.026;35.960;2024-02-28T01:03:58;100081.13;;;-3.79;72.47
75045;BME280;63614;56.026;35.960;2024-02-28T01:06:24;100093.50;;;-3.89;72.74
75045;BME280;63614;56.026;35.960;2024-02-28T01:08:50;100095.22;;;-3.89;72.78
75045;BME280;63614;56.026;35.960;2024-02-28T01:11:16;100105.38;;;-3.89;72.80
75045;BME280;63614;56.026;35.960;2024-02-28T01:13:41;100096.19;;;-3.92;73.28
75045;BME280;63614;56.026;35.960;2024-02-28T01:16:08;100093.25;;;-3.84;73.38
75045;BME280;63614;56.026;35.960;2024-02-28T01:18:34;100093.66;;;-3.92;73.70
75045;BME280;63614;56.026;35.960;2024-02-28T01:21:00;100088.19;;;-3.84;73.40
75045;BME280;63614;56.026;35.960;2024-02-28T01:23:25;100096.09;;;-3.90;73.76
75045;BME280;63614;56.026;35.960;2024-02-28T01:25:51;100099.16;;;-3.84;73.84
75045;BME280;63614;56.026;35.960;2024-02-28T01:28:17;100099.22;;;-3.85;73.71
75045;BME280;63614;56.026;35.960;2024-02-28T01:30:43;100100.13;;;-3.86;73.70
75045;BME280;63614;56.026;35.960;2024-02-28T01:33:09;100103.72;;;-3.90;74.07
75045;BME280;63614;56.026;35.960;2024-02-28T01:35:35;100099.47;;;-3.90;73.77
75045;BME280;63614;56.026;35.960;2024-02-28T01:38:00;100102.91;;;-3.91;74.30
75045;BME280;63614;56.026;35.960;2024-02-28T01:40:26;100106.84;;;-3.85;74.27
75045;BME280;63614;56.026;35.960;2024-02-28T01:42:52;100107.94;;;-3.89;74.35
75045;BME280;63614;56.026;35.960;2024-02-28T01:45:18;100103.34;;;-3.83;73.97
75045;BME280;63614;56.026;35.960;2024-02-28T01:47:44;100091.22;;;-3.77;74.16
75045;BME280;63614;56.026;35.960;2024-02-28T01:50:10;100094.31;;;-3.88;74.08
75045;BME280;63614;56.026;35.960;2024-02-28T01:52:38;100081.13;;;-3.79;74.12
75045;BME280;63614;56.026;35.960;2024-02-28T01:55:04;100090.09;;;-3.72;73.15
75045;BME280;63614;56.026;35.960;2024-02-28T01:57:32;100081.13;;;-3.79;72.85
75045;BME280;63614;56.026;35.960;2024-02-28T01:59:58;100074.97;;;-3.91;74.00
75045;BME280;63614;56.026;35.960;2024-02-28T02:02:25;100075.31;;;-3.81;73.82
75045;BME280;63614;56.026;35.960;2024-02-28T02:04:51;100068.66;;;-3.84;73.67
75045;BME280;63614;56.026;35.960;2024-02-28T02:07:20;100075.69;;;-3.89;73.87
75045;BME280;63614;56.026;35.960;2024-02-28T02:09:46;100073.00;;;-3.86;73.87
75045;BME280;63614;56.026;35.960;2024-02-28T02:12:12;100071.34;;;-3.87;73.73
75045;BME280;63614;56.026;35.960;2024-02-28T02:14:38;100076.50;;;-3.88;73.81
75045;BME280;63614;56.026;35.960;2024-02-28T02:17:04;100072.28;;;-3.88;73.49
75045;BME280;63614;56.026;35.960;2024-02-28T02:19:30;100079.13;;;-3.90;73.79
75045;BME280;63614;56.026;35.960;2024-02-28T02:21:58;100083.72;;;-3.96;73.74
75045;BME280;63614;56.026;35.960;2024-02-28T02:24:25;100086.25;;;-3.96;73.86
75045;BME280;63614;56.026;35.960;2024-02-28T02:26:58;100074.28;;;-3.94;74.21
75045;BME280;63614;56.026;35.960;2024-02-28T02:29:24;100087.53;;;-4.05;74.27
75045;BME280;63614;56.026;35.960;2024-02-28T02:31:50;100074.31;;;-4.12;74.92
75045;BME280;63614;56.026;35.960;2024-02-28T02:34:15;100069.06;;;-4.09;75.39
75045;BME280;63614;56.026;35.960;2024-02-28T02:36:41;100066.00;;;-3.98;75.15
75045;BME280;63614;56.026;35.960;2024-02-28T02:39:07;100064.25;;;-3.97;75.60
75045;BME280;63614;56.026;35.960;2024-02-28T02:41:34;100066.66;;;-3.94;75.54
75045;BME280;63614;56.026;35.960;2024-02-28T02:43:59;100064.09;;;-3.94;75.61
75045;BME280;63614;56.026;35.960;2024-02-28T02:46:25;100056.41;;;-3.93;75.43
75045;BME280;63614;56.026;35.960;2024-02-28T02:48:51;100062.69;;;-3.83;74.87
75045;BME280;63614;56.026;35.960;2024-02-28T02:51:19;100060.44;;;-3.89;74.75
75045;BME280;63614;56.026;35.960;2024-02-28T02:53:45;100074.53;;;-3.83;74.85
75045;BME280;63614;56.026;35.960;2024-02-28T02:56:10;100074.03;;;-3.90;74.54
75045;BME280;63614;56.026;35.960;2024-02-28T02:58:36;100055.22;;;-3.86;74.54
75045;BME280;63614;56.026;35.960;2024-02-28T03:01:02;100070.91;;;-3.95;74.60
75045;BME280;63614;56.026;35.960;2024-02-28T03:03:28;100057.63;;;-4.00;74.28
75045;BME280;63614;56.026;35.960;2024-02-28T03:05:54;100061.72;;;-3.97;74.00
75045;BME280;63614;56.026;35.960;2024-02-28T03:08:20;100062.41;;;-3.94;73.78
75045;BME280;63614;56.026;35.960;2024-02-28T03:10:46;100050.16;;;-4.03;74.34
75045;BME280;63614;56.026;35.960;2024-02-28T03:13:11;100057.88;;;-4.05;74.38
75045;BME280;63614;56.026;35.960;2024-02-28T03:15:37;100067.91;;;-4.19;74.72
75045;BME280;63614;56.026;35.960;2024-02-28T03:18:03;100067.59;;;-4.13;74.92
75045;BME280;63614;56.026;35.960;2024-02-28T03:20:30;100060.28;;;-4.19;74.95
75045;BME280;63614;56.026;35.960;2024-02-28T03:22:55;100060.81;;;-4.30;75.18
75045;BME280;63614;56.026;35.960;2024-02-28T03:25:21;100060.66;;;-4.27;75.43
75045;BME280;63614;56.026;35.960;2024-02-28T03:27:47;100061.47;;;-4.26;75.57
75045;BME280;63614;56.026;35.960;2024-02-28T03:30:13;100061.00;;;-4.17;75.38
75045;BME280;63614;56.026;35.960;2024-02-28T03:32:39;100051.16;;;-4.23;75.44
75045;BME280;63614;56.026;35.960;2024-02-28T03:35:05;100055.44;;;-4.24;75.50
75045;BME280;63614;56.026;35.960;2024-02-28T03:37:34;100060.50;;;-4.24;75.51
75045;BME280;63614;56.026;35.960;2024-02-28T03:40:00;100062.47;;;-4.29;75.82
75045;BME280;63614;56.026;35.960;2024-02-28T03:42:26;100062.81;;;-4.19;75.88
75045;BME280;63614;56.026;35.960;2024-02-28T03:44:51;100070.00;;;-4.27;75.80
75045;BME280;63614;56.026;35.960;2024-02-28T03:47:17;100073.56;;;-4.14;75.92
75045;BME280;63614;56.026;35.960;2024-02-28T03:49:43;100079.94;;;-4.23;75.72
75045;BME280;63614;56.026;35.960;2024-02-28T03:52:09;100088.72;;;-4.12;76.11
75045;BME280;63614;56.026;35.960;2024-02-28T03:54:35;100086.41;;;-4.17;76.06
75045;BME280;63614;56.026;35.960;2024-02-28T03:57:01;100089.78;;;-4.16;76.16
75045;BME280;63614;56.026;35.960;2024-02-28T03:59:27;100078.50;;;-4.11;76.02
75045;BME280;63614;56.026;35.960;2024-02-28T04:01:53;100079.31;;;-4.10;75.83
75045;BME280;63614;56.026;35.960;2024-02-28T04:04:19;100081.09;;;-4.12;76.41
75045;BME280;63614;56.026;35.960;2024-02-28T04:06:45;100078.88;;;-4.18;76.15
75045;BME280;63614;56.026;35.960;2024-02-28T04:09:10;100070.28;;;-4.16;76.21
75045;BME280;63614;56.026;35.960;2024-02-28T04:11:37;100083.13;;;-4.19;76.65
75045;BME280;63614;56.026;35.960;2024-02-28T04:14:03;100068.13;;;-4.24;76.96
75045;BME280;63614;56.026;35.960;2024-02-28T04:16:29;100079.78;;;-4.20;77.22
75045;BME280;63614;56.026;35.960;2024-02-28T04:18:55;100074.09;;;-4.25;77.36
75045;BME280;63614;56.026;35.960;2024-02-28T04:21:21;100079.59;;;-4.16;76.92
75045;BME280;63614;56.026;35.960;2024-02-28T04:23:46;100094.25;;;-4.39;77.47
75045;BME280;63614;56.026;35.960;2024-02-28T04:26:12;100090.91;;;-4.22;77.49
75045;BME280;63614;56.026;35.960;2024-02-28T04:28:38;100089.31;;;-4.07;76.95
75045;BME280;63614;56.026;35.960;2024-02-28T04:31:04;100082.75;;;-4.11;77.16
75045;BME280;63614;56.026;35.960;2024-02-28T04:33:29;100085.31;;;-4.11;76.68
75045;BME280;63614;56.026;35.960;2024-02-28T04:35:55;100088.66;;;-4.11;76.81
75045;BME280;63614;56.026;35.960;2024-02-28T04:38:21;100086.84;;;-4.09;76.62
75045;BME280;63614;56.026;35.960;2024-02-28T04:40:47;100090.25;;;-4.08;76.72
75045;BME280;63614;56.026;35.960;2024-02-28T04:43:13;100079.22;;;-4.09;76.91
75045;BME280;63614;56.026;35.960;2024-02-28T04:45:38;100089.47;;;-4.10;77.40
75045;BME280;63614;56.026;35.960;2024-02-28T04:48:05;100088.63;;;-3.93;76.89
75045;BME280;63614;56.026;35.960;2024-02-28T04:50:31;100090.63;;;-3.83;76.60
75045;BME280;63614;56.026;35.960;2024-02-28T04:52:57;100098.53;;;-3.71;75.80
75045;BME280;63614;56.026;35.960;2024-02-28T04:55:23;100086.66;;;-3.55;75.66
75045;BME280;63614;56.026;35.960;2024-02-28T04:57:48;100085.94;;;-3.41;75.09
75045;BME280;63614;56.026;35.960;2024-02-28T05:00:14;100082.78;;;-3.29;74.09
75045;BME280;63614;56.026;35.960;2024-02-28T05:02:40;100078.00;;;-3.19;73.84
75045;BME280;63614;56.026;35.960;2024-02-28T05:05:07;100075.06;;;-3.11;73.50
75045;BME280;63614;56.026;35.960;2024-02-28T05:07:33;100081.34;;;-2.86;72.92
75045;BME280;63614;56.026;35.960;2024-02-28T05:09:59;100078.69;;;-2.69;72.28
75045;BME280;63614;56.026;35.960;2024-02-28T05:12:25;100085.97;;;-2.63;71.97
75045;BME280;63614;56.026;35.960;2024-02-28T05:14:50;100088.25;;;-2.88;72.16
75045;BME280;63614;56.026;35.960;2024-02-28T05:17:16;100079.81;;;-2.75;71.97
75045;BME280;63614;56.026;35.960;2024-02-28T05:19:43;100082.31;;;-2.89;72.53
75045;BME280;63614;56.026;35.960;2024-02-28T05:22:09;100091.16;;;-2.64;71.65
75045;BME280;63614;56.026;35.960;2024-02-28T05:24:37;100075.53;;;-2.58;71.53
75045;BME280;63614;56.026;35.960;2024-02-28T05:27:02;100089.69;;;-2.68;71.56
75045;BME280;63614;56.026;35.960;2024-02-28T05:29:28;100094.19;;;-2.58;71.60
75045;BME280;63614;56.026;35.960;2024-02-28T05:31:54;100096.56;;;-2.54;72.04
75045;BME280;63614;56.026;35.960;2024-02-28T05:34:20;100092.06;;;-2.65;71.74
75045;BME280;63614;56.026;35.960;2024-02-28T05:36:46;100078.44;;;-2.64;71.99
75045;BME280;63614;56.026;35.960;2024-02-28T05:39:12;100088.22;;;-2.42;72.21
75045;BME280;63614;56.026;35.960;2024-02-28T05:41:37;100092.69;;;-2.31;71.39
75045;BME280;63614;56.026;35.960;2024-02-28T05:44:03;100090.91;;;-2.29;71.67
75045;BME280;63614;56.026;35.960;2024-02-28T05:46:29;100091.47;;;-2.24;71.79
75045;BME280;63614;56.026;35.960;2024-02-28T05:48:56;100101.78;;;-2.42;72.41
75045;BME280;63614;56.026;35.960;2024-02-28T05:51:22;100101.66;;;-2.24;71.90
75045;BME280;63614;56.026;35.960;2024-02-28T05:53:48;100104.47;;;-2.14;71.51
75045;BME280;63614;56.026;35.960;2024-02-28T05:56:14;100101.09;;;-2.29;72.13
75045;BME280;63614;56.026;35.960;2024-02-28T05:58:41;100103.06;;;-2.04;71.65
75045;BME280;63614;56.026;35.960;2024-02-28T06:01:12;100095.88;;;-1.97;71.41
75045;BME280;63614;56.026;35.960;2024-02-28T06:03:38;100098.25;;;-1.80;71.22
75045;BME280;63614;56.026;35.960;2024-02-28T06:06:04;100084.97;;;-1.71;71.04
75045;BME280;63614;56.026;35.960;2024-02-28T06:08:35;100086.03;;;-1.75;70.69
75045;BME280;63614;56.026;35.960;2024-02-28T06:11:03;100091.59;;;-1.68;70.96
75045;BME280;63614;56.026;35.960;2024-02-28T06:13:29;100083.41;;;-1.59;70.40
75045;BME280;63614;56.026;35.960;2024-02-28T06:15:55;100095.41;;;-1.47;69.88
75045;BME280;63614;56.026;35.960;2024-02-28T06:18:22;100097.00;;;-1.17;69.44
75045;BME280;63614;56.026;35.960;2024-02-28T06:20:56;100072.16;;;-1.00;68.50
75045;BME280;63614;56.026;35.960;2024-02-28T06:23:23;100090.94;;;-1.01;68.26
75045;BME280;63614;56.026;35.960;2024-02-28T06:25:49;100089.06;;;-1.12;68.35
75045;BME280;63614;56.026;35.960;2024-02-28T06:28:15;100086.59;;;-1.14;68.89
75045;BME280;63614;56.026;35.960;2024-02-28T06:30:43;100089.53;;;-1.20;69.44
75045;BME280;63614;56.026;35.960;2024-02-28T06:33:12;100095.47;;;-1.19;69.57
75045;BME280;63614;56.026;35.960;2024-02-28T06:35:39;100089.81;;;-1.39;69.80
75045;BME280;63614;56.026;35.960;2024-02-28T06:38:05;100093.88;;;-1.49;70.46
75045;BME280;63614;56.026;35.960;2024-02-28T06:40:31;100088.91;;;-1.23;69.55
75045;BME280;63614;56.026;35.960;2024-02-28T06:42:56;100086.53;;;-1.26;70.40
75045;BME280;63614;56.026;35.960;2024-02-28T06:45:22;100084.13;;;-1.15;69.77
75045;BME280;63614;56.026;35.960;2024-02-28T06:47:50;100081.94;;;-1.07;69.45
75045;BME280;63614;56.026;35.960;2024-02-28T06:50:16;100080.31;;;-1.08;69.03
75045;BME280;63614;56.026;35.960;2024-02-28T06:52:42;100080.78;;;-0.88;68.96
75045;BME280;63614;56.026;35.960;2024-02-28T06:55:08;100087.00;;;-0.93;69.34
75045;BME280;63614;56.026;35.960;2024-02-28T06:57:37;100087.72;;;-1.18;69.40
75045;BME280;63614;56.026;35.960;2024-02-28T07:00:08;100090.91;;;-1.14;69.41
75045;BME280;63614;56.026;35.960;2024-02-28T07:02:38;100101.03;;;-0.85;68.67
75045;BME280;63614;56.026;35.960;2024-02-28T07:05:04;100097.38;;;-0.81;68.44
75045;BME280;63614;56.026;35.960;2024-02-28T07:07:31;100100.31;;;-0.47;68.27
75045;BME280;63614;56.026;35.960;2024-02-28T07:09:57;100109.50;;;-0.45;67.26
75045;BME280;63614;56.026;35.960;2024-02-28T07:12:23;100109.94;;;-0.51;67.56
75045;BME280;63614;56.026;35.960;2024-02-28T07:14:54;100094.63;;;-0.78;67.88
75045;BME280;63614;56.026;35.960;2024-02-28T07:17:21;100091.66;;;-0.72;68.58
75045;BME280;63614;56.026;35.960;2024-02-28T07:19:46;100088.50;;;-0.76;68.61
75045;BME280;63614;56.026;35.960;2024-02-28T07:22:12;100098.31;;;-0.69;67.97
75045;BME280;63614;56.026;35.960;2024-02-28T07:24:38;100094.63;;;-0.38;67.34
75045;BME280;63614;56.026;35.960;2024-02-28T07:27:05;100092.88;;;-0.38;67.17
75045;BME280;63614;56.026;35.960;2024-02-28T07:29:30;100089.94;;;-0.19;66.63
75045;BME280;63614;56.026;35.960;2024-02-28T07:31:56;100091.53;;;-0.43;67.82
75045;BME280;63614;56.026;35.960;2024-02-28T07:34:22;100091.84;;;-0.48;67.89
75045;BME280;63614;56.026;35.960;2024-02-28T07:36:48;100091.22;;;-0.51;67.97
75045;BME280;63614;56.026;35.960;2024-02-28T07:39:14;100092.97;;;-0.39;67.71
75045;BME280;63614;56.026;35.960;2024-02-28T07:41:40;100091.88;;;-0.22;67.47
75045;BME280;63614;56.026;35.960;2024-02-28T07:44:09;100102.22;;;0.02;66.60
75045;BME280;63614;56.026;35.960;2024-02-28T07:46:35;100093.94;;;0.11;66.55
75045;BME280;63614;56.026;35.960;2024-02-28T07:49:01;100095.38;;;0.15;66.02
75045;BME280;63614;56.026;35.960;2024-02-28T07:51:28;100097.59;;;0.33;65.45
75045;BME280;63614;56.026;35.960;2024-02-28T07:53:54;100095.78;;;0.09;65.55
75045;BME280;63614;56.026;35.960;2024-02-28T07:56:20;100086.97;;;0.13;66.16
75045;BME280;63614;56.026;35.960;2024-02-28T07:58:47;100080.63;;;0.06;66.77
75045;BME280;63614;56.026;35.960;2024-02-28T08:01:13;100074.91;;;0.15;66.40
75045;BME280;63614;56.026;35.960;2024-02-28T08:03:39;100077.06;;;0.22;65.84
75045;BME280;63614;56.026;35.960;2024-02-28T08:06:05;100072.31;;;0.28;65.89
75045;BME280;63614;56.026;35.960;2024-02-28T08:08:30;100065.25;;;0.32;66.01
75045;BME280;63614;56.026;35.960;2024-02-28T08:10:56;100089.00;;;0.47;65.65
75045;BME280;63614;56.026;35.960;2024-02-28T08:13:22;100075.09;;;0.25;66.73
75045;BME280;63614;56.026;35.960;2024-02-28T08:15:48;100077.41;;;0.54;65.75
75045;BME280;63614;56.026;35.960;2024-02-28T08:18:14;100076.97;;;0.60;66.53
75045;BME280;63614;56.026;35.960;2024-02-28T08:20:39;100081.53;;;0.81;65.34
75045;BME280;63614;56.026;35.960;2024-02-28T08:23:05;100080.88;;;0.66;65.55
75045;BME280;63614;56.026;35.960;2024-02-28T08:25:32;100074.41;;;0.60;65.86
75045;BME280;63614;56.026;35.960;2024-02-28T08:27:58;100080.13;;;0.77;66.20
75045;BME280;63614;56.026;35.960;2024-02-28T08:30:24;100078.81;;;0.95;65.49
75045;BME280;63614;56.026;35.960;2024-02-28T08:32:50;100067.50;;;0.86;65.70
75045;BME280;63614;56.026;35.960;2024-02-28T08:35:18;100072.28;;;1.15;64.94
75045;BME280;63614;56.026;35.960;2024-02-28T08:37:44;100076.88;;;1.23;64.79
75045;BME280;63614;56.026;35.960;2024-02-28T08:40:10;100061.00;;;1.18;64.53
75045;BME280;63614;56.026;35.960;2024-02-28T08:42:37;100065.41;;;1.16;64.30
75045;BME280;63614;56.026;35.960;2024-02-28T08:45:03;100057.88;;;1.25;64.37
75045;BME280;63614;56.026;35.960;2024-02-28T08:47:30;100058.25;;;1.32;64.32
75045;BME280;63614;56.026;35.960;2024-02-28T08:49:56;100056.09;;;1.50;64.22
75045;BME280;63614;56.026;35.960;2024-02-28T08:52:22;100060.03;;;1.43;64.20
75045;BME280;63614;56.026;35.960;2024-02-28T08:54:48;100061.00;;;1.53;64.86
75045;BME280;63614;56.026;35.960;2024-02-28T08:57:14;100073.84;;;1.53;64.30
75045;BME280;63614;56.026;35.960;2024-02-28T08:59:40;100060.44;;;1.72;63.71
75045;BME280;63614;56.026;35.960;2024-02-28T09:02:07;100062.78;;;1.75;63.55
75045;BME280;63614;56.026;35.960;2024-02-28T09:04:33;100071.28;;;1.53;63.64
75045;BME280;63614;56.026;35.960;2024-02-28T09:06:59;100059.50;;;1.62;63.76
75045;BME280;63614;56.026;35.960;2024-02-28T09:09:26;100068.03;;;1.74;63.70
75045;BME280;63614;56.026;35.960;2024-02-28T09:11:53;100054.66;;;1.81;63.71
75045;BME280;63614;56.026;35.960;2024-02-28T09:14:19;100067.47;;;1.81;63.52
75045;BME280;63614;56.026;35.960;2024-02-28T09:16:45;100073.53;;;1.80;63.06
75045;BME280;63614;56.026;35.960;2024-02-28T09:19:11;100066.78;;;2.13;62.78
75045;BME280;63614;56.026;35.960;2024-02-28T09:21:36;100069.97;;;2.40;61.67
75045;BME280;63614;56.026;35.960;2024-02-28T09:24:02;100065.84;;;2.48;61.43
75045;BME280;63614;56.026;35.960;2024-02-28T09:26:28;100061.06;;;2.55;61.31
75045;BME280;63614;56.026;35.960;2024-02-28T09:28:54;100060.72;;;2.48;61.66
75045;BME280;63614;56.026;35.960;2024-02-28T09:31:20;100060.38;;;2.53;60.92
75045;BME280;63614;56.026;35.960;2024-02-28T09:33:46;100057.97;;;2.84;60.12
75045;BME280;63614;56.026;35.960;2024-02-28T09:36:13;100068.72;;;3.21;59.79
75045;BME280;63614;56.026;35.960;2024-02-28T09:38:39;100074.69;;;3.43;58.62
75045;BME280;63614;56.026;35.960;2024-02-28T09:41:06;100079.09;;;3.52;58.33
75045;BME280;63614;56.026;35.960;2024-02-28T09:43:38;100079.41;;;3.59;58.03
75045;BME280;63614;56.026;35.960;2024-02-28T09:46:07;100083.06;;;3.56;57.86
75045;BME280;63614;56.026;35.960;2024-02-28T09:48:40;100074.41;;;3.78;58.18
75045;BME280;63614;56.026;35.960;2024-02-28T09:51:07;100078.66;;;3.68;56.97
75045;BME280;63614;56.026;35.960;2024-02-28T09:53:34;100072.22;;;3.53;57.78
75045;BME280;63614;56.026;35.960;2024-02-28T09:55:59;100069.66;;;3.41;58.38
75045;BME280;63614;56.026;35.960;2024-02-28T09:58:26;100070.66;;;2.97;59.14
75045;BME280;63614;56.026;35.960;2024-02-28T10:00:57;100064.47;;;2.99;60.24
75045;BME280;63614;56.026;35.960;2024-02-28T10:03:25;100068.22;;;2.95;59.46
75045;BME280;63614;56.026;35.960;2024-02-28T10:05:52;100066.28;;;3.20;59.17
75045;BME280;63614;56.026;35.960;2024-02-28T10:08:18;100068.41;;;3.15;58.98
75045;BME280;63614;56.026;35.960;2024-02-28T10:10:48;100061.22;;;2.97;59.33
75045;BME280;63614;56.026;35.960;2024-02-28T10:13:17;100064.66;;;3.07;59.79
75045;BME280;63614;56.026;35.960;2024-02-28T10:15:43;100063.06;;;2.95;59.76
75045;BME280;63614;56.026;35.960;2024-02-28T10:18:10;100067.31;;;2.85;60.21
75045;BME280;63614;56.026;35.960;2024-02-28T10:20:35;100063.13;;;2.72;61.22
75045;BME280;63614;56.026;35.960;2024-02-28T10:23:05;100066.38;;;2.86;60.74
75045;BME280;63614;56.026;35.960;2024-02-28T10:25:32;100062.50;;;2.91;60.33
75045;BME280;63614;56.026;35.960;2024-02-28T10:28:01;100052.63;;;2.76;60.47
75045;BME280;63614;56.026;35.960;2024-02-28T10:30:27;100038.00;;;2.87;60.74
75045;BME280;63614;56.026;35.960;2024-02-28T10:32:53;100051.66;;;2.88;60.86
75045;BME280;63614;56.026;35.960;2024-02-28T10:35:19;100044.66;;;3.11;60.04
75045;BME280;63614;56.026;35.960;2024-02-28T10:37:47;100031.31;;;2.96;60.27
75045;BME280;63614;56.026;35.960;2024-02-28T10:40:15;100017.94;;;2.81;60.83
75045;BME280;63614;56.026;35.960;2024-02-28T10:42:42;100034.88;;;3.16;60.57
75045;BME280;63614;56.026;35.960;2024-02-28T10:45:12;100021.47;;;3.01;60.66
75045;BME280;63614;56.026;35.960;2024-02-28T10:47:39;100020.72;;;3.11;60.33
75045;BME280;63614;56.026;35.960;2024-02-28T10:50:05;100015.72;;;3.09;60.24
75045;BME280;63614;56.026;35.960;2024-02-28T10:52:33;100023.56;;;3.28;59.56
75045;BME280;63614;56.026;35.960;2024-02-28T10:55:02;100020.97;;;3.40;59.84
75045;BME280;63614;56.026;35.960;2024-02-28T10:57:30;100017.88;;;3.25;60.55
75045;BME280;63614;56.026;35.960;2024-02-28T10:59:57;100009.03;;;3.39;59.67
75045;BME280;63614;56.026;35.960;2024-02-28T11:02:25;100019.06;;;3.42;59.89
75045;BME280;63614;56.026;35.960;2024-02-28T11:04:52;100006.34;;;3.40;60.00
75045;BME280;63614;56.026;35.960;2024-02-28T11:07:21;100003.19;;;3.58;59.36
75045;BME280;63614;56.026;35.960;2024-02-28T11:09:53;100007.06;;;3.52;59.60
75045;BME280;63614;56.026;35.960;2024-02-28T11:12:27;100009.44;;;3.65;59.02
75045;BME280;63614;56.026;35.960;2024-02-28T11:15:03;100013.72;;;3.76;59.27
75045;BME280;63614;56.026;35.960;2024-02-28T11:17:32;100007.06;;;4.04;58.69
75045;BME280;63614;56.026;35.960;2024-02-28T11:19:59;100009.50;;;4.06;58.44
75045;BME280;63614;56.026;35.960;2024-02-28T11:22:28;99994.84;;;3.96;58.17
75045;BME280;63614;56.026;35.960;2024-02-28T11:24:55;99994.41;;;3.91;58.91
75045;BME280;63614;56.026;35.960;2024-02-28T11:27:21;99999.75;;;4.09;58.08
75045;BME280;63614;56.026;35.960;2024-02-28T11:29:48;100002.38;;;4.19;57.88
75045;BME280;63614;56.026;35.960;2024-02-28T11:32:16;99999.75;;;4.09;57.21
75045;BME280;63614;56.026;35.960;2024-02-28T11:34:42;99984.88;;;4.23;57.29
75045;BME280;63614;56.026;35.960;2024-02-28T11:37:09;99982.50;;;4.31;57.21
75045;BME280;63614;56.026;35.960;2024-02-28T11:39:35;99969.63;;;4.50;56.29
75045;BME280;63614;56.026;35.960;2024-02-28T11:42:12;99981.66;;;4.40;56.63
75045;BME280;63614;56.026;35.960;2024-02-28T11:44:42;99975.44;;;4.43;57.07
75045;BME280;63614;56.026;35.960;2024-02-28T11:47:11;99973.28;;;4.58;56.74
75045;BME280;63614;56.026;35.960;2024-02-28T11:49:37;99978.03;;;4.52;56.35
75045;BME280;63614;56.026;35.960;2024-02-28T11:52:06;99972.72;;;4.25;56.86
75045;BME280;63614;56.026;35.960;2024-02-28T11:54:32;99978.16;;;4.31;57.69
75045;BME280;63614;56.026;35.960;2024-02-28T11:56:58;99975.03;;;4.28;57.15
75045;BME280;63614;56.026;35.960;2024-02-28T11:59:24;99968.50;;;4.33;56.90
75045;BME280;63614;56.026;35.960;2024-02-28T12:01:50;99959.44;;;4.29;57.16
75045;BME280;63614;56.026;35.960;2024-02-28T12:04:17;99974.66;;;4.42;57.43
75045;BME280;63614;56.026;35.960;2024-02-28T12:06:43;99964.03;;;4.35;57.07
75045;BME280;63614;56.026;35.960;2024-02-28T12:09:11;99974.38;;;4.45;56.75
75045;BME280;63614;56.026;35.960;2024-02-28T12:11:40;99966.81;;;4.53;56.88
75045;BME280;63614;56.026;35.960;2024-02-28T12:14:10;99962.56;;;4.43;55.46
75045;BME280;63614;56.026;35.960;2024-02-28T12:16:39;99967.31;;;4.38;56.29
75045;BME280;63614;56.026;35.960;2024-02-28T12:19:09;99965.41;;;4.40;56.31
75045;BME280;63614;56.026;35.960;2024-02-28T12:21:39;99966.75;;;4.34;56.03
75045;BME280;63614;56.026;35.960;2024-02-28T12:24:07;99972.22;;;4.41;55.65
75045;BME280;63614;56.026;35.960;2024-02-28T12:26:38;99956.19;;;4.37;56.19
75045;BME280;63614;56.026;35.960;2024-02-28T12:29:03;99966.06;;;4.32;55.60
75045;BME280;63614;56.026;35.960;2024-02-28T12:31:29;99957.00;;;4.38;54.84
75045;BME280;63614;56.026;35.960;2024-02-28T12:33:55;99963.53;;;4.51;54.16
75045;BME280;63614;56.026;35.960;2024-02-28T12:36:21;99962.06;;;4.59;54.27
75045;BME280;63614;56.026;35.960;2024-02-28T12:38:47;99966.41;;;4.58;54.21
75045;BME280;63614;56.026;35.960;2024-02-28T12:41:14;99967.34;;;4.57;53.21